createdAt,value
2019-03-17T00:00:29.885Z,99865.59
2019-03-17T00:03:03.546Z,99861.69
2019-03-17T00:05:37.796Z,99861.21
2019-03-17T00:08:11.270Z,99848.05
2019-03-17T00:10:44.899Z,99846.27
2019-03-17T00:13:18.659Z,99835.31
2019-03-17T00:15:59.825Z,99836.53
2019-03-17T00:18:38.492Z,99831.70
2019-03-17T00:21:14.209Z,99831.27
2019-03-17T00:23:47.680Z,99829.13
2019-03-17T00:26:21.500Z,99827.77
2019-03-17T00:28:56.042Z,99824.67
2019-03-17T00:31:29.542Z,99830.75
2019-03-17T00:34:03.253Z,99826.37
2019-03-17T00:36:37.127Z,99837.22
2019-03-17T00:39:10.668Z,99831.11
2019-03-17T00:41:44.265Z,99828.47
2019-03-17T00:44:17.816Z,99824.47
2019-03-17T00:46:51.331Z,99828.42
2019-03-17T00:49:26.173Z,99823.64
2019-03-17T00:51:59.672Z,99821.41
2019-03-17T00:54:33.229Z,99819.69
2019-03-17T00:57:07.289Z,99805.69
2019-03-17T00:59:40.920Z,99809.16
2019-03-17T01:02:14.310Z,99811.37
2019-03-17T01:04:56.114Z,99811.00
2019-03-17T01:07:23.226Z,99806.14
2019-03-17T01:09:57.605Z,99802.23
2019-03-17T01:12:31.174Z,99803.52
2019-03-17T01:15:04.705Z,99809.62
2019-03-17T01:17:38.229Z,99805.77
2019-03-17T01:20:11.706Z,99805.77
2019-03-17T01:22:45.071Z,99807.95
2019-03-17T01:25:18.415Z,99799.22
2019-03-17T01:27:51.811Z,99795.74
2019-03-17T01:30:25.222Z,99796.59
2019-03-17T01:32:59.794Z,99790.89
2019-03-17T01:35:33.130Z,99784.77
2019-03-17T01:38:06.635Z,99790.83
2019-03-17T01:40:40.170Z,99783.41
2019-03-17T01:43:13.537Z,99775.95
2019-03-17T01:45:48.249Z,99770.69
2019-03-17T01:48:21.592Z,99764.98
2019-03-17T01:50:55.131Z,99762.76
2019-03-17T01:53:28.540Z,99764.05
2019-03-17T01:56:01.936Z,99763.59
2019-03-17T01:58:35.303Z,99762.28
2019-03-17T02:01:11.758Z,99761.78
2019-03-17T02:03:44.845Z,99761.35
2019-03-17T02:06:19.247Z,99769.19
2019-03-17T02:08:53.328Z,99770.02
2019-03-17T02:11:26.902Z,99772.26
2019-03-17T02:14:00.728Z,99764.45
2019-03-17T02:16:34.246Z,99777.97
2019-03-17T02:19:07.748Z,99773.61
2019-03-17T02:21:41.350Z,99770.57
2019-03-17T02:24:14.775Z,99770.97
2019-03-17T02:26:48.283Z,99766.16
2019-03-17T02:29:21.647Z,99759.64
2019-03-17T02:31:55.052Z,99748.31
2019-03-17T02:34:28.458Z,99750.95
2019-03-17T02:37:02.028Z,99745.28
2019-03-17T02:39:35.741Z,99744.91
2019-03-17T02:42:09.290Z,99739.25
2019-03-17T02:44:42.714Z,99738.36
2019-03-17T02:47:16.431Z,99737.96
2019-03-17T02:49:49.770Z,99733.60
2019-03-17T02:52:23.489Z,99731.89
2019-03-17T02:54:57.282Z,99730.98
2019-03-17T02:57:30.651Z,99729.67
2019-03-17T03:00:04.093Z,99724.06
2019-03-17T03:02:38.561Z,99735.82
2019-03-17T03:05:12.106Z,99734.03
2019-03-17T03:07:45.515Z,99731.41
2019-03-17T03:10:19.353Z,99732.70
2019-03-17T03:12:52.805Z,99725.25
2019-03-17T03:15:26.301Z,99731.77
2019-03-17T03:17:59.879Z,99730.86
2019-03-17T03:20:33.450Z,99727.41
2019-03-17T03:23:08.413Z,99726.53
2019-03-17T03:25:42.825Z,99719.98
2019-03-17T03:28:16.305Z,99725.64
2019-03-17T03:30:49.804Z,99717.79
2019-03-17T03:33:23.368Z,99725.64
2019-03-17T03:36:09.765Z,99721.72
2019-03-17T03:38:31.997Z,99717.84
2019-03-17T03:41:05.362Z,99713.38
2019-03-17T03:43:39.371Z,99709.53
2019-03-17T03:46:12.877Z,99708.22
2019-03-17T03:48:46.343Z,99716.45
2019-03-17T03:51:20.473Z,99704.69
2019-03-17T03:53:55.110Z,99708.14
2019-03-17T03:56:28.612Z,99712.53
2019-03-17T03:59:02.067Z,99705.98
2019-03-17T04:01:35.815Z,99698.66
2019-03-17T04:04:09.225Z,99701.76
2019-03-17T04:06:42.689Z,99698.25
2019-03-17T04:09:16.072Z,99693.07
2019-03-17T04:11:49.564Z,99693.92
2019-03-17T04:14:23.051Z,99697.02
2019-03-17T04:16:56.525Z,99689.25
2019-03-17T04:19:29.918Z,99690.08
2019-03-17T04:22:03.710Z,99682.25
2019-03-17T04:24:37.243Z,99687.56
2019-03-17T04:27:10.644Z,99681.85
2019-03-17T04:29:44.479Z,99681.02
2019-03-17T04:32:18.260Z,99682.38
2019-03-17T04:34:51.734Z,99678.91
2019-03-17T04:37:25.253Z,99677.62
2019-03-17T04:39:58.752Z,99676.82
2019-03-17T04:42:32.642Z,99669.39
2019-03-17T04:45:06.663Z,99677.67
2019-03-17T04:47:40.159Z,99674.73
2019-03-17T04:50:13.592Z,99664.69
2019-03-17T04:52:46.978Z,99659.85
2019-03-17T04:55:20.406Z,99657.23
2019-03-17T04:57:54.160Z,99660.70
2019-03-17T05:00:28.688Z,99656.36
2019-03-17T05:03:02.321Z,99649.84
2019-03-17T05:05:35.829Z,99649.81
2019-03-17T05:08:09.277Z,99648.05
2019-03-17T05:10:42.701Z,99648.91
2019-03-17T05:13:16.128Z,99641.05
2019-03-17T05:15:49.563Z,99641.48
2019-03-17T05:18:23.000Z,99637.14
2019-03-17T05:20:56.470Z,99623.16
2019-03-17T05:23:30.340Z,99620.13
2019-03-17T05:26:03.894Z,99620.11
2019-03-17T05:28:37.747Z,99620.11
2019-03-17T05:31:11.278Z,99627.37
2019-03-17T05:33:44.820Z,99617.84
2019-03-17T05:36:18.246Z,99613.08
2019-03-17T05:38:51.837Z,99612.69
2019-03-17T05:41:25.689Z,99616.16
2019-03-17T05:43:59.133Z,99620.11
2019-03-17T05:46:32.678Z,99617.09
2019-03-17T05:49:06.137Z,99610.95
2019-03-17T05:51:41.029Z,99604.88
2019-03-17T05:54:15.433Z,99607.47
2019-03-17T05:56:48.925Z,99602.69
2019-03-17T05:59:22.374Z,99602.59
2019-03-17T06:02:22.811Z,99601.65
2019-03-17T06:04:56.365Z,99595.45
2019-03-17T06:07:29.947Z,99596.67
2019-03-17T06:10:03.846Z,99597.87
2019-03-17T06:12:37.820Z,99601.26
2019-03-17T06:15:12.486Z,99598.87
2019-03-17T06:17:45.980Z,99597.13
2019-03-17T06:20:19.412Z,99604.36
2019-03-17T06:22:52.888Z,99600.31
2019-03-17T06:25:26.724Z,99608.48
2019-03-17T06:28:00.257Z,99598.28
2019-03-17T06:30:34.596Z,99593.72
2019-03-17T06:33:08.659Z,99596.65
2019-03-17T06:35:42.701Z,99595.55
2019-03-17T06:38:16.589Z,99591.19
2019-03-17T06:40:51.067Z,99590.50
2019-03-17T06:43:25.415Z,99584.05
2019-03-17T06:45:59.979Z,99578.28
2019-03-17T06:52:27.911Z,99577.11
2019-03-17T07:21:22.524Z,99561.16
2019-03-17T07:23:57.791Z,99559.14
2019-03-17T07:26:32.313Z,99557.22
2019-03-17T07:29:07.861Z,99552.18
2019-03-17T07:31:41.579Z,99556.48
2019-03-17T07:34:15.055Z,99552.55
2019-03-17T07:37:15.771Z,99553.45
2019-03-17T07:40:23.712Z,99554.30
2019-03-17T07:43:35.815Z,99546.34
2019-03-17T07:46:41.842Z,99546.48
2019-03-17T08:06:38.323Z,99540.76
2019-03-17T08:09:44.509Z,99515.95
2019-03-17T08:12:25.935Z,99526.09
2019-03-17T08:15:16.558Z,99521.03
2019-03-17T08:17:53.041Z,99526.91
2019-03-17T08:20:27.133Z,99515.37
2019-03-17T08:23:00.672Z,99506.70
2019-03-17T08:25:35.397Z,99509.89
2019-03-17T08:28:16.009Z,99500.72
2019-03-17T08:30:53.441Z,99499.23
2019-03-17T08:33:29.352Z,99497.52
2019-03-17T08:36:03.697Z,99500.68
2019-03-17T08:38:37.364Z,99501.53
2019-03-17T08:49:18.989Z,99507.66
2019-03-17T08:51:52.306Z,99507.61
2019-03-17T08:54:31.119Z,99502.16
2019-03-17T08:57:04.722Z,99512.74
2019-03-17T08:59:38.079Z,99502.36
2019-03-17T09:02:14.020Z,99501.54
2019-03-17T09:04:58.528Z,99495.19
2019-03-17T09:07:45.427Z,99501.34
2019-03-17T09:10:22.658Z,99500.58
2019-03-17T09:12:56.013Z,99506.86
2019-03-17T09:15:38.321Z,99506.85
2019-03-17T09:18:13.516Z,99498.42
2019-03-17T09:20:47.180Z,99492.98
2019-03-17T09:23:20.350Z,99497.77
2019-03-17T09:25:53.524Z,99490.56
2019-03-17T09:28:32.282Z,99482.07
2019-03-17T09:31:07.609Z,99478.27
2019-03-17T09:33:41.299Z,99474.50
2019-03-17T09:36:14.651Z,99472.46
2019-03-17T09:38:47.912Z,99465.83
2019-03-17T09:41:30.948Z,99471.27
2019-03-17T09:44:09.798Z,99464.25
2019-03-17T09:46:44.188Z,99465.00
2019-03-17T09:49:20.849Z,99454.82
2019-03-17T09:51:57.757Z,99463.43
2019-03-17T09:54:33.761Z,99453.13
2019-03-17T09:57:07.044Z,99459.08
2019-03-17T09:59:41.822Z,99455.30
2019-03-17T10:02:15.310Z,99453.04
2019-03-17T10:04:48.512Z,99455.11
2019-03-17T10:07:22.727Z,99454.34
2019-03-17T10:09:56.314Z,99452.84
2019-03-17T10:12:29.665Z,99450.27
2019-03-17T10:15:02.944Z,99450.66
2019-03-17T10:17:36.474Z,99446.59
2019-03-17T10:20:13.833Z,99440.80
2019-03-17T10:22:46.972Z,99438.70
2019-03-17T10:25:20.105Z,99440.70
2019-03-17T10:27:53.229Z,99440.52
2019-03-17T10:30:26.589Z,99434.44
2019-03-17T10:33:01.446Z,99427.89
2019-03-17T10:35:34.688Z,99434.84
2019-03-17T10:38:07.893Z,99440.69
2019-03-17T10:40:41.053Z,99429.41
2019-03-17T10:43:15.230Z,99433.07
2019-03-17T10:45:48.452Z,99431.20
2019-03-17T10:48:21.689Z,99437.97
2019-03-17T10:50:54.941Z,99434.97
2019-03-17T10:53:28.185Z,99439.50
2019-03-17T10:56:01.340Z,99443.09
2019-03-17T10:58:34.426Z,99434.62
2019-03-17T11:01:07.674Z,99433.31
2019-03-17T11:03:41.919Z,99418.94
2019-03-17T11:06:15.352Z,99415.05
2019-03-17T11:08:49.023Z,99417.31
2019-03-17T11:11:26.651Z,99412.64
2019-03-17T11:17:21.696Z,99411.79
2019-03-17T11:19:55.591Z,99410.55
2019-03-17T11:22:31.615Z,99402.73
2019-03-17T11:25:05.857Z,99407.47
2019-03-17T11:27:41.819Z,99406.02
2019-03-17T11:30:15.085Z,99384.86
2019-03-17T11:32:48.208Z,99389.07
2019-03-17T11:35:22.314Z,99386.67
2019-03-17T11:37:55.335Z,99387.05
2019-03-17T11:40:28.258Z,99394.30
2019-03-17T11:43:01.770Z,99387.42
2019-03-17T11:45:35.680Z,99385.24
2019-03-17T11:48:08.691Z,99385.70
2019-03-17T11:50:41.755Z,99384.37
2019-03-17T11:53:16.275Z,99383.73
2019-03-17T11:55:49.790Z,99382.47
2019-03-17T11:58:26.575Z,99383.29
2019-03-17T12:01:02.070Z,99378.95
2019-03-17T12:03:35.273Z,99385.36
2019-03-17T12:06:08.869Z,99384.03
2019-03-17T12:08:43.015Z,99378.83
2019-03-17T12:11:16.344Z,99372.00
2019-03-17T12:13:49.527Z,99367.72
2019-03-17T12:16:23.548Z,99370.41
2019-03-17T12:18:57.630Z,99358.43
2019-03-17T12:21:30.764Z,99363.33
2019-03-17T12:24:04.035Z,99348.52
2019-03-17T12:26:38.326Z,99347.77
2019-03-17T12:29:11.824Z,99356.95
2019-03-17T12:31:45.010Z,99362.23
2019-03-17T12:34:27.797Z,99355.95
2019-03-17T12:36:52.989Z,99363.21
2019-03-17T12:39:26.081Z,99368.89
2019-03-17T12:41:59.210Z,99359.78
2019-03-17T12:44:33.723Z,99361.28
2019-03-17T12:47:07.221Z,99365.82
2019-03-17T12:49:40.335Z,99355.52
2019-03-17T12:52:13.852Z,99357.50
2019-03-17T12:54:47.953Z,99357.02
2019-03-17T12:57:21.020Z,99352.69
2019-03-17T12:59:54.204Z,99347.30
2019-03-17T13:02:27.340Z,99346.62
2019-03-17T13:05:00.471Z,99354.07
2019-03-17T13:07:34.457Z,99350.63
2019-03-17T13:10:15.715Z,99341.80
2019-03-17T13:12:43.667Z,99342.00
2019-03-17T13:15:16.730Z,99354.98
2019-03-17T13:17:49.839Z,99350.53
2019-03-17T13:20:22.875Z,99346.20
2019-03-17T13:22:55.956Z,99343.99
2019-03-17T13:25:29.066Z,99344.21
2019-03-17T13:28:02.200Z,99349.74
2019-03-17T13:30:35.358Z,99343.72
2019-03-17T13:33:08.862Z,99337.17
2019-03-17T13:35:41.949Z,99335.69
2019-03-17T13:38:16.041Z,99341.16
2019-03-17T13:40:49.286Z,99346.08
2019-03-17T13:43:22.330Z,99348.19
2019-03-17T13:45:55.490Z,99352.92
2019-03-17T13:48:28.577Z,99353.37
2019-03-17T13:51:02.342Z,99355.25
2019-03-17T13:53:35.502Z,99358.63
2019-03-17T13:56:08.978Z,99353.53
2019-03-17T13:58:42.055Z,99356.91
2019-03-17T14:01:15.066Z,99353.84
2019-03-17T14:03:47.943Z,99360.03
2019-03-17T14:06:20.790Z,99347.45
2019-03-17T14:08:54.175Z,99339.47
2019-03-17T14:11:27.083Z,99344.89
2019-03-17T14:14:00.263Z,99332.22
2019-03-17T14:16:36.338Z,99330.98
2019-03-17T14:19:11.088Z,99323.31
2019-03-17T14:21:44.250Z,99338.21
2019-03-17T14:24:17.437Z,99334.03
2019-03-17T14:26:50.672Z,99341.50
2019-03-17T14:29:24.035Z,99350.48
2019-03-17T14:31:57.122Z,99356.13
2019-03-17T14:34:30.204Z,99361.93
2019-03-17T14:37:03.320Z,99361.50
2019-03-17T14:39:36.342Z,99365.23
2019-03-17T14:42:09.447Z,99365.52
2019-03-17T14:44:42.735Z,99373.99
2019-03-17T14:47:15.918Z,99375.01
2019-03-17T14:49:48.990Z,99382.27
2019-03-17T14:52:22.128Z,99392.02
2019-03-17T14:54:55.223Z,99390.91
2019-03-17T14:57:28.360Z,99393.52
2019-03-17T15:00:01.477Z,99385.97
2019-03-17T15:02:34.697Z,99381.90
2019-03-17T15:05:08.572Z,99377.38
2019-03-17T15:07:41.763Z,99365.50
2019-03-17T15:10:16.983Z,99363.16
2019-03-17T15:12:51.595Z,99351.05
2019-03-17T15:15:24.729Z,99350.08
2019-03-17T15:17:57.768Z,99353.70
2019-03-17T15:20:31.950Z,99354.73
2019-03-17T15:23:05.550Z,99355.52
2019-03-17T15:25:39.053Z,99361.81
2019-03-17T15:28:23.563Z,99363.53
2019-03-17T15:31:10.973Z,99365.23
2019-03-17T15:33:37.233Z,99367.61
2019-03-17T15:36:11.423Z,99367.42
2019-03-17T15:38:47.273Z,99369.80
2019-03-17T15:41:26.635Z,99364.59
2019-03-17T15:44:05.390Z,99369.99
2019-03-17T15:46:39.867Z,99365.09
2019-03-17T15:49:14.529Z,99354.38
2019-03-17T15:51:48.081Z,99352.20
2019-03-17T15:54:21.749Z,99346.83
2019-03-17T15:56:55.674Z,99352.22
2019-03-17T15:59:28.977Z,99350.21
2019-03-17T16:02:03.695Z,99360.53
2019-03-17T16:04:37.245Z,99346.59
2019-03-17T16:07:10.729Z,99341.58
2019-03-17T16:09:44.483Z,99343.86
2019-03-17T16:12:17.962Z,99347.75
2019-03-17T16:14:51.567Z,99350.58
2019-03-17T16:17:25.133Z,99359.48
2019-03-17T16:19:58.751Z,99360.24
2019-03-17T16:22:32.296Z,99361.92
2019-03-17T16:25:07.310Z,99369.11
2019-03-17T16:27:40.747Z,99371.16
2019-03-17T16:30:20.474Z,99387.22
2019-03-17T16:32:57.038Z,99391.02
2019-03-17T16:35:30.597Z,99388.23
2019-03-17T16:38:04.140Z,99397.30
2019-03-17T16:40:43.210Z,99406.41
2019-03-17T16:43:20.477Z,99409.88
2019-03-17T16:46:20.836Z,99418.93
2019-03-17T17:10:07.333Z,99480.03
2019-03-17T17:20:17.611Z,99505.77
2019-03-17T17:26:36.535Z,99549.43
2019-03-17T17:29:10.232Z,99574.30
2019-03-17T17:32:00.037Z,99612.79
2019-03-17T17:34:33.291Z,99619.14
2019-03-17T17:37:06.608Z,99604.87
2019-03-17T17:39:39.817Z,99609.39
2019-03-17T17:42:29.305Z,99621.44
2019-03-17T17:45:10.206Z,99637.56
2019-03-17T17:47:44.548Z,99652.05
2019-03-17T17:50:18.599Z,99652.83
2019-03-17T17:52:51.969Z,99665.17
2019-03-17T17:55:25.210Z,99662.62
2019-03-17T17:57:58.485Z,99658.41
2019-03-17T18:00:35.277Z,99662.16
2019-03-17T18:03:09.701Z,99668.69
2019-03-17T18:05:43.198Z,99693.46
2019-03-17T18:08:16.647Z,99696.79
2019-03-17T18:10:50.021Z,99707.34
2019-03-17T18:13:23.319Z,99704.28
2019-03-17T18:15:56.617Z,99704.69
2019-03-17T18:18:29.859Z,99705.87
2019-03-17T18:21:03.477Z,99700.54
2019-03-17T18:23:36.848Z,99711.05
2019-03-17T18:26:10.451Z,99714.88
2019-03-17T18:28:43.844Z,99701.00
2019-03-17T18:32:58.898Z,99700.82
2019-03-17T18:55:20.778Z,99827.92
2019-03-17T19:02:38.749Z,99835.00
2019-03-17T19:06:34.140Z,99843.42
2019-03-17T19:09:35.224Z,99863.21
2019-03-17T19:12:12.796Z,99864.44
2019-03-17T19:14:46.613Z,99848.41
2019-03-17T19:17:22.095Z,99851.13
2019-03-17T19:20:02.459Z,99853.77
2019-03-17T19:22:36.799Z,99849.37
2019-03-17T19:25:18.755Z,99847.22
2019-03-17T19:27:52.774Z,99842.48
2019-03-17T19:30:27.284Z,99839.85
2019-03-17T19:33:01.281Z,99847.67
2019-03-17T19:35:35.165Z,99845.90
2019-03-17T19:38:09.622Z,99852.11
2019-03-17T19:40:45.447Z,99850.08
2019-03-17T19:43:19.047Z,99849.79
2019-03-17T19:45:52.757Z,99854.80
2019-03-17T19:48:27.432Z,99860.01
2019-03-17T19:51:01.588Z,99869.50
2019-03-17T19:53:35.420Z,99871.35
2019-03-17T19:56:08.923Z,99891.50
2019-03-17T19:58:43.443Z,99900.34
2019-03-17T20:01:19.900Z,99904.34
2019-03-17T20:03:54.450Z,99913.62
2019-03-17T20:06:28.144Z,99902.36
2019-03-17T20:09:02.260Z,99895.40
2019-03-17T20:11:36.857Z,99910.32
2019-03-17T20:14:10.691Z,99906.81
2019-03-17T20:16:44.461Z,99907.27
2019-03-17T20:19:17.907Z,99913.44
2019-03-17T20:21:51.490Z,99908.27
2019-03-17T20:24:25.160Z,99908.31
2019-03-17T20:26:58.737Z,99907.43
2019-03-17T20:29:32.417Z,99904.42
2019-03-17T20:32:06.168Z,99901.37
2019-03-17T20:34:40.017Z,99898.36
2019-03-17T20:37:13.543Z,99902.31
2019-03-17T20:39:47.091Z,99897.97
2019-03-17T20:42:21.070Z,99898.75
2019-03-17T20:44:55.521Z,99893.12
2019-03-17T20:47:29.070Z,99887.89
2019-03-17T20:50:02.660Z,99887.52
2019-03-17T20:52:36.140Z,99880.92
2019-03-17T20:55:09.892Z,99880.19
2019-03-17T20:57:43.395Z,99880.59
2019-03-17T21:00:17.003Z,99881.89
2019-03-17T21:02:50.928Z,99887.78
2019-03-17T21:05:24.443Z,99874.02
2019-03-17T21:07:58.463Z,99867.11
2019-03-17T21:10:32.121Z,99881.53
2019-03-17T21:13:09.390Z,99877.70
2019-03-17T21:15:42.520Z,99886.50
2019-03-17T21:18:15.701Z,99886.11
2019-03-17T21:20:48.861Z,99882.66
2019-03-17T21:23:22.106Z,99895.36
2019-03-17T21:25:55.297Z,99906.67
2019-03-17T21:28:28.560Z,99923.22
2019-03-17T21:31:01.948Z,99935.00
2019-03-17T21:33:35.120Z,99931.56
2019-03-17T21:36:08.316Z,99940.71
2019-03-17T21:38:41.465Z,99936.40
2019-03-17T21:41:14.586Z,99940.34
2019-03-17T21:43:58.932Z,99943.02
2019-03-17T21:46:22.547Z,99943.43
2019-03-17T21:48:57.232Z,99944.73
2019-03-17T21:51:30.384Z,99961.73
2019-03-17T21:54:03.531Z,99959.57
2019-03-17T21:56:36.664Z,99962.66
2019-03-17T21:59:09.806Z,99955.20
2019-03-17T22:01:42.930Z,99953.52
2019-03-17T22:04:16.160Z,99964.38
2019-03-17T22:06:49.369Z,99965.28
2019-03-17T22:09:22.471Z,99967.88
2019-03-17T22:11:56.511Z,99975.30
2019-03-17T22:14:29.650Z,99981.39
2019-03-17T22:17:02.767Z,99991.52
2019-03-17T22:19:35.921Z,99988.06
2019-03-17T22:22:09.205Z,100000.30
2019-03-17T22:24:42.394Z,100006.85
2019-03-17T22:27:15.535Z,100009.45
2019-03-17T22:29:49.056Z,100012.95
2019-03-17T22:32:22.531Z,100015.62
2019-03-17T22:34:55.686Z,100021.33
2019-03-17T22:37:28.874Z,100021.77
2019-03-17T22:40:02.092Z,100023.94
2019-03-17T22:42:35.264Z,100030.55
2019-03-17T22:45:09.069Z,100035.41
2019-03-17T22:47:42.242Z,100036.33
2019-03-17T22:50:15.480Z,100038.44
2019-03-17T22:52:48.614Z,100029.72
2019-03-17T22:55:21.769Z,100018.41
2019-03-17T22:57:54.952Z,100018.88
2019-03-17T23:00:44.785Z,100020.64
2019-03-17T23:03:19.119Z,100017.58
2019-03-17T23:05:52.407Z,100023.25
2019-03-17T23:08:25.748Z,100024.56
2019-03-17T23:10:59.090Z,100031.56
2019-03-17T23:13:32.565Z,100036.34
2019-03-17T23:16:05.830Z,100029.00
2019-03-17T23:18:39.151Z,100028.93
2019-03-17T23:21:12.767Z,100031.17
2019-03-17T23:23:46.917Z,100043.41
2019-03-17T23:26:20.201Z,100043.42
2019-03-17T23:28:53.511Z,100051.27
2019-03-17T23:31:26.753Z,100060.87
2019-03-17T23:34:00.131Z,100061.31
2019-03-17T23:36:33.410Z,100071.33
2019-03-17T23:39:07.940Z,100075.66
2019-03-17T23:41:41.227Z,100069.56
2019-03-17T23:44:14.608Z,100066.11
2019-03-17T23:46:47.886Z,100073.11
2019-03-17T23:49:21.311Z,100073.09
2019-03-17T23:51:55.672Z,100073.18
2019-03-17T23:54:29.167Z,100068.40
2019-03-17T23:57:02.474Z,100067.08
2019-03-17T23:59:36.028Z,100071.02
